Time;durP1;ratioP1;P1;durP2;ratioP2;P2;SDS_P1;SDS_P2;PMS_P1;PMS_P2;Temp;Humidity;BMP_temperature;BMP_pressure;BME280_temperature;BME280_humidity;BME280_pressure;Samples;Min_cycle;Max_cycle;Signal;HPM_P1;HPM_P2
2021/03/29 00:02:03;;;;;;;3.55;2.67;;;;;;;11.81;30.81;102220.47;4994711;27;97206;-72
2021/03/29 00:04:30;;;;;;;6.40;3.30;;;;;;;11.83;30.94;102217.03;5007513;28;100326;-72
2021/03/29 00:06:58;;;;;;;4.15;3.25;;;;;;;11.85;30.98;102217.09;5025508;27;99138;-72
2021/03/29 00:09:26;;;;;;;7.47;3.30;;;;;;;11.81;31.11;102215.13;5007241;28;97822;-72
2021/03/29 00:11:54;;;;;;;5.40;3.03;;;;;;;11.83;31.03;102217.03;5028644;27;96754;-71
2021/03/29 00:14:22;;;;;;;5.22;3.13;;;;;;;11.82;30.89;102215.19;5011044;28;100420;-72
2021/03/29 00:16:49;;;;;;;5.13;3.10;;;;;;;11.87;31.27;102208.25;5014191;27;97817;-72
2021/03/29 00:19:16;;;;;;;4.15;3.00;;;;;;;11.94;30.86;102209.44;5031821;27;97220;-72
2021/03/29 00:21:43;;;;;;;5.47;2.90;;;;;;;11.91;30.95;102207.53;4996095;27;97736;-72
2021/03/29 00:24:10;;;;;;;5.70;3.13;;;;;;;11.88;30.96;102198.50;4993125;28;97665;-72
2021/03/29 00:26:38;;;;;;;3.08;2.60;;;;;;;11.86;31.01;102198.47;5023896;27;97375;-72
2021/03/29 00:29:05;;;;;;;4.07;3.10;;;;;;;11.88;30.84;102191.44;5005831;27;99097;-72
2021/03/29 00:31:32;;;;;;;3.17;2.97;;;;;;;11.90;31.04;102196.81;4990535;28;97183;-72
2021/03/29 00:33:59;;;;;;;3.47;3.10;;;;;;;11.90;30.87;102203.06;5022922;27;97618;-72
2021/03/29 00:36:28;;;;;;;7.40;3.20;;;;;;;11.90;31.01;102200.41;5005786;28;100039;-72
2021/03/29 00:38:56;;;;;;;5.25;2.83;;;;;;;11.90;30.86;102200.41;5021087;27;97045;-71
2021/03/29 00:41:24;;;;;;;4.18;2.83;;;;;;;11.93;31.08;102197.84;5023386;27;97490;-72
2021/03/29 00:43:52;;;;;;;3.28;3.00;;;;;;;11.94;31.01;102188.09;5005565;27;99387;-71
2021/03/29 00:46:20;;;;;;;5.03;2.92;;;;;;;11.99;30.93;102190.06;5023944;27;98932;-72
2021/03/29 00:48:49;;;;;;;4.20;3.10;;;;;;;11.95;30.79;102189.88;5005887;28;97203;-72
2021/03/29 00:51:18;;;;;;;6.05;2.67;;;;;;;11.94;30.97;102194.31;5006306;28;98308;-73
2021/03/29 00:53:51;;;;;;;5.30;3.28;;;;;;;11.95;30.97;102181.88;5023584;27;97372;-71
2021/03/29 00:56:19;;;;;;;6.22;3.40;;;;;;;11.97;30.79;102186.44;4990770;28;100213;-71
2021/03/29 00:58:47;;;;;;;4.35;3.35;;;;;;;12.00;31.01;102183.88;5023916;27;96966;-72
2021/03/29 01:01:17;;;;;;;5.97;3.25;;;;;;;11.95;31.10;102180.13;5022537;27;98334;-72
2021/03/29 01:03:47;;;;;;;5.00;3.65;;;;;;;11.97;31.06;102194.44;4989163;27;100789;-70
2021/03/29 01:06:17;;;;;;;6.70;3.60;;;;;;;11.98;31.12;102177.56;5021479;27;98855;-70
2021/03/29 01:08:48;;;;;;;5.88;3.35;;;;;;;12.05;31.21;102184.06;4981088;27;97270;-70
2021/03/29 01:11:16;;;;;;;7.70;3.58;;;;;;;12.11;30.91;102187.84;5004652;28;97027;-70
2021/03/29 01:13:46;;;;;;;7.78;3.72;;;;;;;12.17;31.06;102187.22;5004715;27;100273;-70
2021/03/29 01:16:16;;;;;;;6.00;3.70;;;;;;;12.28;30.90;102184.91;5003915;28;98896;-71
2021/03/29 01:18:44;;;;;;;6.13;3.53;;;;;;;12.35;31.00;102186.97;5021554;27;96970;-71
2021/03/29 01:21:24;;;;;;;5.97;3.65;;;;;;;12.38;30.74;102181.75;5022480;27;97235;-71
2021/03/29 01:23:53;;;;;;;6.90;3.40;;;;;;;12.42;30.65;102183.69;4999559;27;97911;-71
2021/03/29 01:26:33;;;;;;;6.78;3.50;;;;;;;12.41;30.67;102188.09;5022928;27;98718;-71
2021/03/29 01:29:01;;;;;;;7.47;4.03;;;;;;;12.46;30.67;102181.16;4997381;27;97149;-71
2021/03/29 01:31:28;;;;;;;6.50;3.10;;;;;;;12.47;30.56;102187.41;5000130;28;97411;-71
2021/03/29 01:33:56;;;;;;;8.68;3.95;;;;;;;12.47;30.57;102195.44;5021273;27;98952;-71
2021/03/29 01:36:23;;;;;;;5.32;3.10;;;;;;;12.50;30.42;102188.44;5018784;27;98303;-71
2021/03/29 01:38:50;;;;;;;7.70;3.90;;;;;;;12.53;30.54;102193.88;5002059;27;97276;-71
2021/03/29 01:41:18;;;;;;;5.93;3.40;;;;;;;12.54;30.77;102184.09;5002809;28;96959;-71
2021/03/29 01:43:47;;;;;;;6.43;3.20;;;;;;;12.59;30.39;102193.19;5003919;27;97854;-71
2021/03/29 01:46:14;;;;;;;8.93;3.70;;;;;;;12.58;30.64;102186.97;5020674;27;98170;-72
2021/03/29 01:48:42;;;;;;;7.57;3.90;;;;;;;12.56;30.55;102187.75;5002363;28;97410;-71
2021/03/29 01:51:10;;;;;;;7.03;3.30;;;;;;;12.58;30.68;102186.03;5002047;28;97803;-71
2021/03/29 01:53:37;;;;;;;8.53;3.60;;;;;;;12.59;30.73;102187.84;4998754;28;99283;-71
2021/03/29 01:56:04;;;;;;;8.18;3.47;;;;;;;12.59;30.88;102193.19;5003258;27;98170;-73
2021/03/29 01:58:31;;;;;;;8.10;3.63;;;;;;;12.58;30.63;102202.06;5004594;28;97222;-71
2021/03/29 02:01:01;;;;;;;6.22;3.55;;;;;;;12.57;30.69;102195.81;5000837;27;97197;-71
2021/03/29 02:03:29;;;;;;;7.15;3.33;;;;;;;12.57;30.90;102194.88;5020070;27;98825;-71
2021/03/29 02:05:56;;;;;;;6.00;3.72;;;;;;;12.58;30.74;102208.31;5020013;27;97924;-72
2021/03/29 02:08:24;;;;;;;10.00;3.58;;;;;;;12.58;30.59;102202.97;5004717;28;97323;-71
2021/03/29 02:10:52;;;;;;;5.85;3.63;;;;;;;12.50;30.60;102207.13;4986508;27;97209;-71
2021/03/29 02:13:21;;;;;;;7.25;3.50;;;;;;;12.50;30.43;102198.19;5003362;28;98137;-71
2021/03/29 02:15:51;;;;;;;4.30;2.90;;;;;;;12.51;30.42;102192.91;5003987;27;101553;-71
2021/03/29 02:18:22;;;;;;;3.55;3.08;;;;;;;12.47;30.67;102190.09;5004793;28;97070;-71
2021/03/29 02:20:49;;;;;;;4.45;2.85;;;;;;;12.44;30.55;102189.97;5005539;27;96953;-71
2021/03/29 02:23:18;;;;;;;5.70;3.63;;;;;;;12.36;30.66;102195.06;5003991;28;100170;-71
2021/03/29 02:25:47;;;;;;;3.92;3.42;;;;;;;12.41;30.78;102187.19;5006459;27;100413;-71
2021/03/29 02:28:15;;;;;;;7.77;4.00;;;;;;;12.35;30.86;102184.28;5005012;28;97147;-71
2021/03/29 02:30:45;;;;;;;6.47;3.70;;;;;;;12.30;31.08;102191.22;5021233;28;100197;-72
2021/03/29 02:33:13;;;;;;;6.50;3.53;;;;;;;12.28;31.00;102184.91;5024425;27;97997;-72
2021/03/29 02:35:41;;;;;;;5.07;3.70;;;;;;;12.28;31.17;102184.91;5023353;27;97648;-71
2021/03/29 02:38:12;;;;;;;5.50;3.20;;;;;;;12.35;30.95;102186.97;5025466;27;96968;-72
2021/03/29 02:40:39;;;;;;;12.10;4.20;;;;;;;12.34;31.34;102190.50;5005968;28;98052;-73
2021/03/29 02:43:07;;;;;;;8.10;4.20;;;;;;;12.31;31.18;102187.72;5005475;28;98194;-71
2021/03/29 02:45:36;;;;;;;6.70;4.13;;;;;;;12.30;31.50;102186.81;5023407;27;97718;-72
2021/03/29 02:48:06;;;;;;;8.10;4.03;;;;;;;12.25;31.44;102188.41;5004953;27;97392;-72
2021/03/29 02:50:34;;;;;;;8.00;4.20;;;;;;;12.27;31.49;102188.47;5024481;27;98344;-71
2021/03/29 02:53:06;;;;;;;10.20;4.38;;;;;;;12.26;31.67;102184.88;5024011;27;97674;-71
2021/03/29 02:55:33;;;;;;;8.45;4.40;;;;;;;12.27;31.63;102183.13;5005728;28;98362;-71
2021/03/29 02:58:03;;;;;;;7.32;4.53;;;;;;;12.25;31.65;102184.81;4989952;27;97158;-71
2021/03/29 03:00:30;;;;;;;5.87;4.33;;;;;;;12.25;31.73;102175.06;5004248;28;97051;-71
2021/03/29 03:02:59;;;;;;;9.38;4.60;;;;;;;12.28;31.82;102171.56;4999041;27;98788;-71
2021/03/29 03:05:32;;;;;;;25.08;16.35;;;;;;;12.24;31.56;102177.69;5022038;27;99985;-72
2021/03/29 03:07:58;;;;;;;29.38;18.27;;;;;;;12.22;31.77;102174.06;5022747;27;97429;-72
2021/03/29 03:10:27;;;;;;;16.20;9.60;;;;;;;12.24;31.79;102169.69;5004389;28;96950;-72
2021/03/29 03:12:56;;;;;;;9.18;5.30;;;;;;;12.24;31.55;102161.66;4996742;27;99224;-72
2021/03/29 03:15:25;;;;;;;9.82;4.78;;;;;;;12.23;31.67;102159.84;5004345;28;99580;-73
2021/03/29 03:17:53;;;;;;;8.55;4.70;;;;;;;12.24;31.73;102164.34;5022809;27;97013;-73
2021/03/29 03:20:20;;;;;;;8.90;4.23;;;;;;;12.24;31.62;102162.56;5005379;28;99402;-72
2021/03/29 03:22:51;;;;;;;8.75;4.47;;;;;;;12.23;31.60;102170.50;5023308;28;98934;-72
2021/03/29 03:25:21;;;;;;;9.45;4.28;;;;;;;12.24;31.59;102162.56;5005746;28;99540;-72
2021/03/29 03:27:49;;;;;;;9.47;5.23;;;;;;;12.23;31.46;102167.84;5022346;27;97266;-72
2021/03/29 03:30:21;;;;;;;9.23;4.82;;;;;;;12.22;31.56;102179.38;5004714;28;96888;-72
2021/03/29 03:32:47;;;;;;;10.43;4.63;;;;;;;12.22;31.14;102174.06;5003734;27;98864;-72
2021/03/29 03:35:16;;;;;;;8.82;4.60;;;;;;;12.24;31.32;102164.34;5003671;28;100909;-72
2021/03/29 03:37:47;;;;;;;9.93;5.03;;;;;;;12.25;31.25;102166.13;5021412;27;96912;-72
2021/03/29 03:40:15;;;;;;;10.20;4.65;;;;;;;12.27;31.45;102161.78;5005452;28;97630;-72
2021/03/29 03:42:42;;;;;;;7.43;4.72;;;;;;;12.29;31.20;102160.06;4987376;27;98421;-72
2021/03/29 03:45:11;;;;;;;8.77;4.90;;;;;;;12.32;31.21;102163.75;4988438;28;98578;-72
2021/03/29 03:47:39;;;;;;;9.97;5.10;;;;;;;12.37;31.11;102153.22;5004319;28;97246;-72
2021/03/29 03:50:09;;;;;;;9.05;4.93;;;;;;;12.35;31.26;102162.94;5005185;28;97860;-72
2021/03/29 03:52:36;;;;;;;10.20;4.70;;;;;;;12.32;31.19;102166.41;5023698;27;99885;-72
2021/03/29 03:55:04;;;;;;;9.77;4.70;;;;;;;12.29;31.29;102160.06;5004442;27;98871;-72
2021/03/29 03:57:31;;;;;;;7.70;4.47;;;;;;;12.30;31.22;102164.53;5003648;28;96930;-72
2021/03/29 03:59:58;;;;;;;7.80;5.20;;;;;;;12.30;31.20;102164.53;5005537;27;97581;-72
2021/03/29 04:02:26;;;;;;;11.95;5.70;;;;;;;12.25;31.39;102168.81;5003513;28;99784;-72
2021/03/29 04:04:55;;;;;;;13.45;6.60;;;;;;;12.26;31.42;102173.28;5002580;27;100356;-73
2021/03/29 04:07:22;;;;;;;8.52;5.00;;;;;;;12.28;31.46;102174.25;5003362;28;97445;-71
2021/03/29 04:09:54;;;;;;;11.98;5.03;;;;;;;12.26;31.46;102165.28;5021580;27;97421;-72
2021/03/29 04:12:20;;;;;;;25.50;12.13;;;;;;;12.27;31.68;102177.78;5022239;27;98061;-72
2021/03/29 04:14:48;;;;;;;13.50;6.68;;;;;;;12.25;31.65;102188.41;5000766;27;98170;-73
2021/03/29 04:17:15;;;;;;;17.73;8.83;;;;;;;12.28;31.46;102187.59;5022161;27;97658;-71
2021/03/29 04:19:42;;;;;;;10.02;6.28;;;;;;;12.30;31.67;102189.47;5023982;27;96891;-72
2021/03/29 04:22:09;;;;;;;14.52;5.35;;;;;;;12.33;31.46;102200.25;5003031;28;98008;-72
2021/03/29 04:24:36;;;;;;;10.17;5.40;;;;;;;12.30;31.44;102204.56;5005894;28;100582;-72
2021/03/29 04:27:03;;;;;;;11.85;5.55;;;;;;;12.29;31.46;102197.44;5002908;27;97231;-72
2021/03/29 04:29:30;;;;;;;12.43;5.03;;;;;;;12.26;31.53;102198.22;4987591;28;97214;-72
2021/03/29 04:31:57;;;;;;;12.17;5.90;;;;;;;12.24;31.62;102191.91;5022419;27;96921;-72
2021/03/29 04:34:24;;;;;;;8.35;5.55;;;;;;;12.23;31.46;102195.44;4986531;28;98946;-72
2021/03/29 04:36:52;;;;;;;10.27;5.07;;;;;;;12.25;31.72;102192.84;5001997;27;97935;-72
2021/03/29 04:39:18;;;;;;;8.07;4.72;;;;;;;12.23;31.60;102197.19;5023253;27;97405;-72
2021/03/29 04:41:45;;;;;;;18.73;9.93;;;;;;;12.26;31.16;102195.56;5020068;27;97711;-72
2021/03/29 04:44:12;;;;;;;13.63;5.90;;;;;;;12.24;31.41;102193.69;5004363;28;101162;-71
2021/03/29 04:46:39;;;;;;;13.88;5.20;;;;;;;12.22;31.40;102195.41;5020916;27;97723;-70
2021/03/29 04:49:06;;;;;;;13.68;5.50;;;;;;;12.19;31.16;102193.50;5003998;27;98026;-73
2021/03/29 04:51:32;;;;;;;10.50;4.88;;;;;;;12.20;31.19;102192.66;4989796;28;97703;-72
2021/03/29 04:54:00;;;;;;;10.00;4.85;;;;;;;12.20;31.33;102192.66;5003803;27;99378;-71
2021/03/29 04:56:27;;;;;;;9.70;4.57;;;;;;;12.22;31.27;102190.06;5022819;27;96807;-72
2021/03/29 04:58:54;;;;;;;7.13;4.53;;;;;;;12.22;31.16;102187.41;4984476;27;97823;-71
2021/03/29 05:01:21;;;;;;;8.90;5.10;;;;;;;12.20;30.92;102184.63;5017801;27;98282;-72
2021/03/29 05:03:47;;;;;;;8.00;5.00;;;;;;;12.18;30.82;102187.25;5005904;27;97841;-71
2021/03/29 05:06:14;;;;;;;9.32;4.82;;;;;;;12.20;31.04;102199.78;5002373;28;97671;-71
2021/03/29 05:08:41;;;;;;;10.13;4.80;;;;;;;12.17;30.86;102185.47;5020645;27;98404;-71
2021/03/29 05:11:09;;;;;;;11.63;6.20;;;;;;;12.18;30.95;102184.59;5004790;28;101072;-72
2021/03/29 05:13:36;;;;;;;31.63;17.35;;;;;;;12.20;31.29;102191.75;5022692;27;97820;-71
2021/03/29 05:16:04;;;;;;;9.65;5.15;;;;;;;12.24;30.87;102193.69;4988452;27;98335;-71
2021/03/29 05:18:31;;;;;;;8.07;4.60;;;;;;;12.23;30.98;102192.78;5009190;28;97102;-71
2021/03/29 05:20:58;;;;;;;13.38;5.45;;;;;;;12.23;31.12;102199.88;5002035;27;100670;-72
2021/03/29 05:23:24;;;;;;;10.45;4.22;;;;;;;12.26;30.99;102197.31;5027716;27;98828;-72
2021/03/29 05:25:52;;;;;;;10.67;4.60;;;;;;;12.26;31.00;102197.31;5023826;27;97486;-71
2021/03/29 05:28:20;;;;;;;9.93;4.30;;;;;;;12.28;30.90;102195.59;5025599;27;96877;-71
2021/03/29 05:30:47;;;;;;;9.32;4.68;;;;;;;12.28;30.91;102193.84;5002293;27;99329;-72
2021/03/29 05:33:16;;;;;;;9.32;4.43;;;;;;;12.33;30.99;102207.38;5001301;28;98475;-71
2021/03/29 05:35:43;;;;;;;9.23;4.60;;;;;;;12.33;30.94;102210.06;5018705;27;97770;-71
2021/03/29 05:38:10;;;;;;;10.18;4.28;;;;;;;12.39;30.86;102205.81;5001402;28;97894;-71
2021/03/29 05:40:37;;;;;;;11.40;4.70;;;;;;;12.40;30.66;102210.31;4995526;28;97783;-72
2021/03/29 05:43:05;;;;;;;10.70;4.87;;;;;;;12.43;30.73;102207.75;4983456;27;100389;-72
2021/03/29 05:45:32;;;;;;;11.05;4.88;;;;;;;12.44;30.72;102205.97;5003170;28;98447;-71
2021/03/29 05:47:59;;;;;;;11.73;4.95;;;;;;;12.46;30.67;102206.94;5002972;27;98519;-72
2021/03/29 05:50:27;;;;;;;12.65;5.18;;;;;;;12.45;30.50;102199.81;5004107;28;99738;-72
2021/03/29 05:52:53;;;;;;;7.93;4.60;;;;;;;12.48;30.44;102203.50;5019507;27;97945;-71
2021/03/29 05:55:23;;;;;;;13.48;5.07;;;;;;;12.48;30.48;102197.22;5004354;28;97559;-72
2021/03/29 05:58:09;;;;;;;12.43;4.67;;;;;;;12.51;30.29;102197.38;5004057;27;98482;-72
2021/03/29 06:00:40;;;;;;;10.38;4.85;;;;;;;12.53;30.04;102207.22;5005674;28;98161;-72
2021/03/29 06:03:25;;;;;;;9.48;4.68;;;;;;;12.50;30.20;102193.78;4985807;28;99954;-72
2021/03/29 06:05:55;;;;;;;13.55;5.28;;;;;;;12.49;30.40;102205.28;5020242;27;99095;-72
2021/03/29 06:08:22;;;;;;;10.85;4.63;;;;;;;12.51;29.97;102200.91;5025388;27;96823;-72
2021/03/29 06:10:53;;;;;;;10.35;5.25;;;;;;;12.52;29.94;102201.84;5021193;27;97792;-70
2021/03/29 06:13:23;;;;;;;12.70;4.75;;;;;;;12.48;29.98;102215.91;5006767;28;97686;-71
2021/03/29 06:16:04;;;;;;;8.90;5.03;;;;;;;12.47;29.86;102211.44;5022624;27;97059;-71
2021/03/29 06:18:31;;;;;;;10.33;4.70;;;;;;;12.47;29.95;102211.44;5023585;27;97101;-71
2021/03/29 06:21:03;;;;;;;9.98;4.53;;;;;;;12.50;29.90;102212.47;5022662;27;98084;-71
2021/03/29 06:23:31;;;;;;;9.27;4.50;;;;;;;12.51;29.78;102208.03;5003305;28;100305;-74
2021/03/29 06:26:17;;;;;;;13.95;4.88;;;;;;;12.49;29.90;102207.06;5005691;27;97375;-71
2021/03/29 06:28:44;;;;;;;11.70;4.60;;;;;;;12.51;29.78;102211.59;5022059;27;97659;-71
2021/03/29 06:31:27;;;;;;;14.00;4.53;;;;;;;12.51;29.79;102211.59;5001308;28;98249;-71
2021/03/29 06:33:55;;;;;;;16.58;5.18;;;;;;;12.53;29.80;102225.03;5023067;27;97683;-71
2021/03/29 06:36:27;;;;;;;9.95;4.20;;;;;;;12.52;29.92;102217.84;4997447;28;97397;-71
2021/03/29 06:38:55;;;;;;;10.30;4.82;;;;;;;12.53;29.90;102215.22;5003912;27;97245;-71
2021/03/29 06:41:26;;;;;;;9.68;5.10;;;;;;;12.57;29.69;102213.56;5022098;27;99737;-72
2021/03/29 06:43:53;;;;;;;10.50;4.50;;;;;;;12.58;29.60;102215.41;5021917;27;98378;-71
2021/03/29 06:46:22;;;;;;;11.07;5.03;;;;;;;12.59;29.58;102217.22;5002987;28;97234;-72
2021/03/29 06:48:50;;;;;;;15.90;5.30;;;;;;;12.64;29.55;102213.84;5024591;27;97758;-71
2021/03/29 06:51:19;;;;;;;9.20;4.35;;;;;;;12.64;29.49;102213.84;4988025;28;99807;-72
2021/03/29 06:53:47;;;;;;;14.15;5.32;;;;;;;12.64;29.50;102227.22;5003205;27;101093;-72
2021/03/29 06:56:28;;;;;;;11.87;4.90;;;;;;;12.67;29.48;102226.41;5023325;27;97528;-72
2021/03/29 06:58:57;;;;;;;8.48;4.57;;;;;;;12.68;29.38;102233.56;5021848;27;98155;-72
2021/03/29 07:01:25;;;;;;;9.48;4.35;;;;;;;12.69;29.33;102222.03;5022557;27;97854;-72
2021/03/29 07:03:53;;;;;;;9.35;4.47;;;;;;;12.74;29.29;102231.13;5004942;27;98998;-72
2021/03/29 07:06:22;;;;;;;7.97;4.10;;;;;;;12.77;29.04;102231.22;4988625;28;97918;-72
2021/03/29 07:08:49;;;;;;;7.57;3.80;;;;;;;12.80;29.24;102242.03;5023635;27;97402;-71
2021/03/29 07:11:18;;;;;;;11.52;4.45;;;;;;;12.83;29.07;102245.72;5005459;28;97787;-70
2021/03/29 07:13:46;;;;;;;8.35;4.10;;;;;;;12.85;29.03;102236.00;5004669;27;99826;-72
2021/03/29 07:16:13;;;;;;;11.93;4.22;;;;;;;12.90;29.12;102233.47;5005114;28;97098;-72
2021/03/29 07:18:41;;;;;;;8.25;4.25;;;;;;;12.97;28.98;102240.84;4995673;28;96938;-70
2021/03/29 07:21:13;;;;;;;12.47;4.90;;;;;;;13.00;29.00;102254.34;5005482;28;98927;-70
2021/03/29 07:23:41;;;;;;;10.10;4.05;;;;;;;13.01;28.91;102248.13;5005054;28;99209;-72
2021/03/29 07:26:20;;;;;;;10.20;4.65;;;;;;;13.07;28.82;102253.72;4992249;28;96985;-71
2021/03/29 07:28:48;;;;;;;9.20;4.30;;;;;;;13.07;28.77;102251.03;5021292;27;97224;-69
2021/03/29 07:31:36;;;;;;;9.80;4.45;;;;;;;13.04;28.89;102262.53;4988208;28;100091;-69
2021/03/29 07:34:03;;;;;;;9.87;4.10;;;;;;;13.10;28.97;102256.47;5004341;27;97765;-71
2021/03/29 07:36:46;;;;;;;10.18;3.92;;;;;;;13.12;29.06;102260.09;5004952;28;97592;-71
2021/03/29 07:39:19;;;;;;;10.25;4.32;;;;;;;13.15;29.09;102262.88;5004180;28;97530;-70
2021/03/29 07:41:46;;;;;;;8.20;4.40;;;;;;;13.15;29.18;102270.91;5021919;27;97425;-70
2021/03/29 07:44:16;;;;;;;10.35;4.75;;;;;;;13.13;29.08;102267.25;4983680;28;99402;-71
2021/03/29 07:46:48;;;;;;;10.43;4.28;;;;;;;13.20;29.03;102277.34;4998054;27;97859;-70
2021/03/29 07:49:40;;;;;;;10.48;4.43;;;;;;;13.24;29.19;102271.22;4985673;28;97551;-70
2021/03/29 07:52:31;;;;;;;9.82;5.00;;;;;;;13.21;29.12;102268.44;5022397;27;98920;-71
2021/03/29 07:55:00;;;;;;;10.02;4.20;;;;;;;13.25;29.15;102274.78;5022450;27;98658;-70
2021/03/29 07:58:07;;;;;;;8.98;4.10;;;;;;;13.25;29.04;102274.78;4996292;28;97290;-71
2021/03/29 08:00:57;;;;;;;10.88;4.22;;;;;;;13.23;29.15;102265.81;5001622;28;99169;-70
2021/03/29 08:03:38;;;;;;;11.15;4.57;;;;;;;13.28;29.14;102274.88;5002028;28;99205;-71
2021/03/29 08:06:06;;;;;;;8.00;4.65;;;;;;;13.32;29.08;102277.72;5002395;27;98958;-70
2021/03/29 08:08:41;;;;;;;9.10;4.22;;;;;;;13.35;29.05;102276.94;5003384;28;97684;-71
2021/03/29 08:11:10;;;;;;;9.77;4.80;;;;;;;13.33;29.07;102268.84;4994717;28;97488;-71
2021/03/29 08:13:40;;;;;;;10.25;4.97;;;;;;;13.34;28.99;102270.69;4994790;28;99842;-71
2021/03/29 08:16:08;;;;;;;10.90;5.47;;;;;;;13.35;29.00;102267.13;5004107;27;99092;-71
2021/03/29 08:19:10;;;;;;;9.75;4.70;;;;;;;13.40;28.90;102270.88;5001915;28;96867;-71
2021/03/29 08:21:50;;;;;;;10.98;4.82;;;;;;;13.48;28.46;102265.75;5002233;28;97097;-72
2021/03/29 08:24:22;;;;;;;15.50;5.22;;;;;;;13.45;28.64;102279.03;5020275;27;98798;-72
2021/03/29 08:26:50;;;;;;;10.57;4.50;;;;;;;13.46;28.75;102271.06;4984638;27;101289;-71
2021/03/29 08:29:27;;;;;;;6.47;4.30;;;;;;;13.44;28.82;102264.75;5024175;27;97882;-72
2021/03/29 08:32:15;;;;;;;11.25;4.80;;;;;;;13.38;28.85;102267.25;5022193;27;97044;-70
2021/03/29 08:34:48;;;;;;;10.57;4.47;;;;;;;13.40;28.73;102275.31;5001745;27;97110;-70
2021/03/29 08:37:17;;;;;;;11.80;4.28;;;;;;;13.42;28.69;102271.84;5002199;28;98147;-72
2021/03/29 08:39:46;;;;;;;9.77;4.50;;;;;;;13.44;28.70;102272.78;5003922;27;97556;-70
2021/03/29 08:42:15;;;;;;;9.57;4.50;;;;;;;13.42;28.75;102273.59;5002852;28;97402;-71
2021/03/29 08:44:43;;;;;;;10.57;4.70;;;;;;;13.44;28.82;102269.22;5002061;27;97854;-70
2021/03/29 08:47:12;;;;;;;14.55;4.68;;;;;;;13.49;28.67;102276.53;5004117;28;100844;-71
2021/03/29 08:49:40;;;;;;;10.82;5.65;;;;;;;13.50;28.72;102272.06;4999570;28;97040;-71
2021/03/29 08:52:07;;;;;;;8.95;4.70;;;;;;;13.52;28.75;102273.94;4992875;28;97565;-71
2021/03/29 08:54:35;;;;;;;12.48;4.75;;;;;;;13.56;28.78;102275.88;4998941;28;97708;-70
2021/03/29 08:57:05;;;;;;;12.90;4.82;;;;;;;13.62;28.70;102277.84;5000291;27;100323;-71
2021/03/29 08:59:32;;;;;;;12.32;5.13;;;;;;;13.61;28.87;102278.69;5017836;27;98187;-71
2021/03/29 09:01:59;;;;;;;13.80;5.23;;;;;;;13.66;28.85;102286.00;5021586;27;97301;-71
2021/03/29 09:04:27;;;;;;;17.95;5.65;;;;;;;13.69;28.90;102274.50;5024411;28;98460;-71
2021/03/29 09:06:55;;;;;;;11.73;5.38;;;;;;;13.75;28.82;102266.69;5013717;27;97844;-67
2021/03/29 09:09:23;;;;;;;11.93;5.60;;;;;;;13.78;29.07;102273.03;4992437;28;97850;-67
2021/03/29 09:11:51;;;;;;;7.85;3.95;;;;;;;13.86;29.02;102265.28;5000081;27;98146;-67
2021/03/29 09:14:20;;;;;;;10.68;4.95;;;;;;;13.85;29.19;102272.41;5019972;27;98364;-67
2021/03/29 09:16:56;;;;;;;13.57;5.13;;;;;;;13.90;28.91;102281.47;5004033;27;99820;-67
2021/03/29 09:19:23;;;;;;;10.25;4.97;;;;;;;13.95;28.93;102278.94;5003996;28;97927;-68
2021/03/29 09:21:55;;;;;;;11.07;4.97;;;;;;;14.02;28.83;102279.16;5001468;27;97751;-68
2021/03/29 09:24:23;;;;;;;7.28;4.35;;;;;;;14.08;28.98;102276.69;5000831;28;98762;-67
2021/03/29 09:27:02;;;;;;;11.60;4.80;;;;;;;14.14;28.58;102287.59;4984540;27;99550;-68
2021/03/29 09:29:32;;;;;;;11.00;4.40;;;;;;;14.21;28.63;102286.00;5002410;28;97367;-68
2021/03/29 09:32:06;;;;;;;11.25;4.68;;;;;;;14.28;28.04;102292.44;4992349;27;97024;-68
2021/03/29 09:34:34;;;;;;;10.50;4.03;;;;;;;14.33;28.16;102288.13;5022762;27;97062;-70
2021/03/29 09:37:02;;;;;;;13.20;4.30;;;;;;;14.43;27.95;102293.81;5005737;27;101029;-69
2021/03/29 09:39:30;;;;;;;9.75;4.03;;;;;;;14.50;27.93;102289.53;5001051;28;97549;-68
2021/03/29 09:42:01;;;;;;;12.50;4.65;;;;;;;14.62;27.47;102273.84;5004109;27;97696;-68
2021/03/29 09:44:30;;;;;;;9.10;4.03;;;;;;;14.68;27.31;102290.09;4975366;28;98886;-68
2021/03/29 09:46:59;;;;;;;8.87;3.60;;;;;;;14.76;27.02;102277.81;4987545;27;98584;-72
2021/03/29 09:49:28;;;;;;;5.70;3.20;;;;;;;14.90;26.87;102280.00;5006251;28;97153;-71
2021/03/29 09:52:05;;;;;;;11.32;3.40;;;;;;;14.93;27.07;102273.81;4993928;27;97538;-71
2021/03/29 09:54:35;;;;;;;3.40;3.10;;;;;;;14.94;26.75;102270.25;4989515;28;99271;-72
2021/03/29 09:57:12;;;;;;;8.00;4.30;;;;;;;15.02;27.17;102274.06;5026584;27;99043;-72
2021/03/29 09:59:42;;;;;;;5.47;3.28;;;;;;;15.03;27.19;102271.41;5008162;28;97612;-72
2021/03/29 10:02:15;;;;;;;4.80;2.80;;;;;;;15.01;27.19;102269.56;5003236;28;98622;-72
2021/03/29 10:04:43;;;;;;;5.07;2.83;;;;;;;15.04;26.91;102266.97;4982921;27;100339;-71
2021/03/29 10:07:15;;;;;;;7.50;2.72;;;;;;;15.04;26.90;102273.25;5015786;27;99179;-70
2021/03/29 10:09:46;;;;;;;6.53;3.28;;;;;;;15.12;26.79;102276.13;4998237;27;98273;-70
2021/03/29 10:12:23;;;;;;;6.97;3.30;;;;;;;15.17;26.57;102263.75;5021858;27;98147;-72
2021/03/29 10:14:51;;;;;;;5.70;2.80;;;;;;;15.22;27.07;102267.44;5006236;27;100731;-72
2021/03/29 10:17:19;;;;;;;5.15;3.22;;;;;;;15.30;26.93;102265.91;5024147;27;98731;-71
2021/03/29 10:19:47;;;;;;;4.50;3.20;;;;;;;15.27;27.04;102264.88;5002938;27;98844;-70
2021/03/29 10:22:16;;;;;;;3.55;2.70;;;;;;;15.31;26.76;102266.81;5008599;28;97563;-69
2021/03/29 10:24:57;;;;;;;7.68;3.40;;;;;;;15.28;26.65;102272.97;5006212;27;99865;-70
2021/03/29 10:27:25;;;;;;;4.63;3.72;;;;;;;15.28;26.94;102264.94;4986374;28;97975;-71
2021/03/29 10:29:53;;;;;;;5.90;3.20;;;;;;;15.23;26.93;102263.88;4982459;28;99530;-71
2021/03/29 10:32:21;;;;;;;7.43;3.92;;;;;;;15.11;26.83;102258.22;5000704;28;97022;-71
2021/03/29 10:34:49;;;;;;;7.00;3.50;;;;;;;15.17;26.29;102282.53;4985662;27;99725;-71
2021/03/29 10:37:22;;;;;;;9.18;3.75;;;;;;;15.21;26.08;102267.41;5004986;28;97939;-71
2021/03/29 10:39:49;;;;;;;8.43;3.37;;;;;;;15.29;25.93;102257.78;5018505;27;97778;-71
2021/03/29 10:42:17;;;;;;;7.60;3.80;;;;;;;15.33;26.09;102257.94;5022797;27;96960;-71
2021/03/29 10:44:44;;;;;;;10.77;3.97;;;;;;;15.42;25.93;102270.66;5013876;27;98938;-71
2021/03/29 10:47:12;;;;;;;4.97;3.17;;;;;;;15.57;25.73;102260.31;5022825;27;97638;-71
2021/03/29 10:49:39;;;;;;;4.82;3.20;;;;;;;15.69;25.80;102256.13;5023278;27;97123;-72
2021/03/29 10:52:07;;;;;;;7.03;2.70;;;;;;;15.84;25.66;102256.50;5024130;27;96938;-72
2021/03/29 10:54:34;;;;;;;5.57;4.00;;;;;;;16.03;25.44;102260.56;5001788;28;100019;-72
2021/03/29 10:57:02;;;;;;;6.75;2.80;;;;;;;16.21;25.38;102254.66;5022827;27;99732;-71
2021/03/29 10:59:29;;;;;;;5.15;2.90;;;;;;;16.32;25.25;102245.97;5025257;27;97098;-72
2021/03/29 11:01:56;;;;;;;5.88;3.25;;;;;;;16.38;25.41;102258.63;4982414;27;97561;-71
2021/03/29 11:04:23;;;;;;;6.90;2.88;;;;;;;16.40;25.12;102249.69;5001073;28;99555;-72
2021/03/29 11:06:51;;;;;;;6.03;3.10;;;;;;;16.30;24.02;102245.03;5002497;27;98143;-71
2021/03/29 11:09:17;;;;;;;5.93;2.92;;;;;;;16.52;24.27;102244.59;5003903;28;96942;-72
2021/03/29 11:11:44;;;;;;;8.55;2.90;;;;;;;16.62;24.15;102245.66;5005748;27;97514;-71
2021/03/29 11:14:11;;;;;;;5.30;3.00;;;;;;;16.67;24.27;102234.09;5021348;27;97647;-71
2021/03/29 11:16:38;;;;;;;5.32;3.10;;;;;;;16.75;24.27;102235.22;5023799;27;98055;-70
2021/03/29 11:19:05;;;;;;;3.17;2.42;;;;;;;16.89;24.28;102240.81;4983533;27;97320;-71
2021/03/29 11:21:33;;;;;;;4.47;2.90;;;;;;;16.96;24.20;102234.72;4989446;28;97350;-71
2021/03/29 11:24:01;;;;;;;5.18;2.83;;;;;;;17.00;24.31;102247.31;5022011;27;99267;-71
2021/03/29 11:26:28;;;;;;;5.43;2.40;;;;;;;17.06;24.31;102239.34;5001450;28;99323;-71
2021/03/29 11:28:55;;;;;;;2.78;2.55;;;;;;;16.99;24.20;102226.69;5003695;27;96892;-71
2021/03/29 11:31:24;;;;;;;3.33;2.85;;;;;;;16.98;24.31;102236.53;5022085;27;97874;-71
2021/03/29 11:33:51;;;;;;;7.93;2.88;;;;;;;17.05;24.33;102238.44;5004019;27;99676;-71